Time;durP1;ratioP1;P1;durP2;ratioP2;P2;SDS_P1;SDS_P2;PMS_P1;PMS_P2;Temp;Humidity;BMP_temperature;BMP_pressure;BME280_temperature;BME280_humidity;BME280_pressure;Samples;Min_cycle;Max_cycle;Signal;HPM_P1;HPM_P2
2022/04/19 00:00:29;;;;;;;4.20;2.50;;;;;;;5.63;67.20;99155.16;5003195;28;20057;-53
2022/04/19 00:02:54;;;;;;;4.45;2.50;;;;;;;5.76;66.84;99154.28;4988885;28;20030;-52
2022/04/19 00:05:20;;;;;;;5.00;2.80;;;;;;;5.48;68.33;99144.00;4990073;28;20052;-52
2022/04/19 00:07:45;;;;;;;5.40;2.70;;;;;;;5.37;71.66;99151.59;4988786;28;20787;-50
2022/04/19 00:10:11;;;;;;;5.45;2.50;;;;;;;5.67;67.37;99144.94;4986716;28;20365;-51
2022/04/19 00:12:36;;;;;;;4.15;2.45;;;;;;;5.77;67.45;99140.78;4992278;28;20026;-52
2022/04/19 00:15:02;;;;;;;4.53;2.90;;;;;;;5.93;66.59;99143.97;4991909;28;20392;-52
2022/04/19 00:17:28;;;;;;;4.00;2.53;;;;;;;5.71;67.01;99141.63;4987361;28;20022;-51
2022/04/19 00:19:53;;;;;;;4.30;2.50;;;;;;;5.78;68.42;99136.28;4989069;28;20500;-50
2022/04/19 00:22:19;;;;;;;6.15;2.58;;;;;;;5.71;66.81;99130.97;4997056;28;20132;-50
2022/04/19 00:24:44;;;;;;;3.97;2.42;;;;;;;5.68;67.92;99135.94;4992271;28;20444;-49
2022/04/19 00:27:09;;;;;;;4.57;2.80;;;;;;;5.49;67.98;99127.84;4991331;28;20057;-52
2022/04/19 00:29:35;;;;;;;4.63;2.85;;;;;;;5.35;69.24;99132.38;4991151;28;20034;-54
2022/04/19 00:32:01;;;;;;;5.40;2.70;;;;;;;5.67;69.53;99129.78;4995260;28;20054;-54
2022/04/19 00:34:27;;;;;;;7.20;3.10;;;;;;;5.61;68.89;99120.81;4993881;28;20029;-52
2022/04/19 00:36:52;;;;;;;4.43;2.90;;;;;;;5.55;68.16;99123.50;4996266;28;20054;-51
2022/04/19 00:39:17;;;;;;;4.40;2.95;;;;;;;5.16;70.69;99125.31;4992312;28;20030;-51
2022/04/19 00:41:43;;;;;;;4.70;2.90;;;;;;;5.17;70.23;99118.97;4994986;28;20038;-51
2022/04/19 00:44:08;;;;;;;6.78;2.83;;;;;;;5.09;73.41;99119.19;4988330;28;20437;-50
2022/04/19 00:46:34;;;;;;;5.72;2.85;;;;;;;5.22;70.32;99116.50;4987437;28;20047;-54
2022/04/19 00:48:59;;;;;;;4.47;2.38;;;;;;;5.28;69.95;99110.34;4988076;28;20121;-52
2022/04/19 00:51:25;;;;;;;5.95;2.30;;;;;;;5.48;70.75;99107.59;4988077;28;20031;-50
2022/04/19 00:53:50;;;;;;;5.10;2.72;;;;;;;5.35;69.59;99105.81;4986707;28;20465;-51
2022/04/19 00:56:16;;;;;;;3.95;2.65;;;;;;;5.19;70.11;99111.59;4984866;28;20079;-51
2022/04/19 00:58:41;;;;;;;5.22;2.67;;;;;;;5.07;73.63;99107.97;4971346;28;20477;-52
2022/04/19 01:01:07;;;;;;;4.82;3.05;;;;;;;4.90;71.48;99107.63;4993193;28;20043;-52
2022/04/19 01:03:32;;;;;;;4.85;2.83;;;;;;;4.82;72.46;99106.00;4999284;28;20041;-54
2022/04/19 01:05:59;;;;;;;4.80;3.08;;;;;;;4.73;73.00;99102.75;4991879;28;20057;-52
2022/04/19 01:08:25;;;;;;;5.95;2.65;;;;;;;5.05;72.38;99104.72;4988401;28;20498;-54
2022/04/19 01:13:16;;;;;;;5.40;2.92;;;;;;;4.94;70.80;99098.19;4987847;28;20044;-50
2022/04/19 01:13:35;;;;;;;4.35;2.75;;;;;;;5.18;70.74;99094.84;4991379;28;20035;-51
2022/04/19 01:16:01;;;;;;;5.35;2.58;;;;;;;4.74;72.10;99098.22;4971410;28;20125;-53
2022/04/19 01:18:26;;;;;;;5.57;3.08;;;;;;;4.88;71.76;99105.16;4994838;28;20030;-52
2022/04/19 01:20:52;;;;;;;3.70;2.58;;;;;;;4.85;71.19;99102.91;4980280;28;20044;-50
2022/04/19 01:23:19;;;;;;;4.15;2.70;;;;;;;5.12;71.63;99100.19;4991772;28;20026;-53
2022/04/19 01:25:45;;;;;;;4.15;2.58;;;;;;;5.03;71.08;99098.78;4992032;28;20104;-53
2022/04/19 01:28:10;;;;;;;4.53;2.78;;;;;;;4.80;71.12;99101.91;4990399;28;20042;-54
2022/04/19 01:30:35;;;;;;;4.97;3.17;;;;;;;4.48;72.65;99099.91;4998312;28;20046;-51
2022/04/19 01:33:02;;;;;;;4.80;2.88;;;;;;;4.42;73.54;99102.56;4985966;28;20053;-50
2022/04/19 01:35:27;;;;;;;5.53;3.30;;;;;;;4.59;73.49;99100.31;4999687;28;20034;-52
2022/04/19 01:37:53;;;;;;;4.32;2.72;;;;;;;4.60;72.09;99088.69;4993673;28;20042;-51
2022/04/19 01:40:18;;;;;;;5.18;3.20;;;;;;;4.52;71.73;99087.88;4991550;28;20030;-51
2022/04/19 01:42:48;;;;;;;4.45;2.78;;;;;;;4.53;72.92;99091.34;4990435;28;20030;-50
2022/04/19 01:45:18;;;;;;;5.10;2.75;;;;;;;4.56;73.88;99088.28;4995009;28;20046;-49
2022/04/19 01:47:43;;;;;;;5.68;3.08;;;;;;;4.47;73.57;99085.03;4997533;28;20483;-49
2022/04/19 01:50:10;;;;;;;5.63;2.75;;;;;;;4.63;79.62;99080.31;4997689;28;20026;-51
2022/04/19 01:52:37;;;;;;;5.05;3.17;;;;;;;4.44;73.65;99077.50;5000024;28;20090;-50
2022/04/19 01:55:07;;;;;;;8.80;3.10;;;;;;;4.28;74.73;99086.66;4991613;28;20645;-55
2022/04/19 01:57:32;;;;;;;4.47;2.90;;;;;;;4.23;75.40;99080.34;5003573;28;20342;-51
2022/04/19 01:59:57;;;;;;;5.97;3.22;;;;;;;4.11;75.19;99077.47;4993846;28;20581;-49
2022/04/19 02:02:23;;;;;;;6.90;3.55;;;;;;;3.96;75.81;99080.34;4996371;28;20045;-53
2022/04/19 02:04:50;;;;;;;4.00;2.90;;;;;;;3.80;76.20;99076.25;4994051;28;20041;-51
2022/04/19 02:07:16;;;;;;;7.78;3.50;;;;;;;3.70;76.72;99080.31;4996113;28;20045;-50
2022/04/19 02:09:41;;;;;;;9.38;3.90;;;;;;;3.58;77.06;99080.91;4991019;28;20069;-50
2022/04/19 02:12:07;;;;;;;7.82;3.80;;;;;;;3.54;77.55;99082.31;4990810;28;20085;-51
2022/04/19 02:14:33;;;;;;;4.53;3.30;;;;;;;3.62;81.67;99074.19;4990452;28;20030;-49
2022/04/19 02:16:58;;;;;;;7.43;4.05;;;;;;;3.66;78.13;99080.69;4989661;28;20069;-50
2022/04/19 02:19:24;;;;;;;5.63;3.20;;;;;;;3.46;78.15;99082.50;4998428;28;20439;-50
2022/04/19 02:21:49;;;;;;;7.05;4.15;;;;;;;3.58;78.40;99082.75;5003767;28;20037;-50
2022/04/19 02:24:14;;;;;;;4.90;3.25;;;;;;;3.49;78.61;99081.28;5001307;28;20555;-51
2022/04/19 02:26:40;;;;;;;5.68;3.35;;;;;;;3.57;77.83;99079.28;4996125;28;20413;-52
2022/04/19 02:29:05;;;;;;;6.18;3.40;;;;;;;3.80;77.77;99078.09;4995678;28;20026;-49
2022/04/19 02:31:30;;;;;;;5.78;3.22;;;;;;;3.75;76.62;99084.00;4996081;28;20078;-49
2022/04/19 02:33:58;;;;;;;5.72;3.53;;;;;;;3.58;77.00;99077.44;4996720;28;20026;-50
2022/04/19 02:36:27;;;;;;;7.40;3.47;;;;;;;3.39;78.38;99074.50;4994696;28;20038;-49
2022/04/19 02:38:52;;;;;;;7.32;3.58;;;;;;;3.37;79.11;99075.72;5000155;28;20025;-52
2022/04/19 02:41:18;;;;;;;6.05;3.55;;;;;;;3.30;78.11;99081.03;4996946;28;20045;-50
2022/04/19 02:43:43;;;;;;;8.15;3.78;;;;;;;3.18;78.83;99072.03;4991174;28;20030;-52
2022/04/19 02:46:09;;;;;;;5.28;3.17;;;;;;;3.37;77.76;99070.44;4993288;28;20101;-52
2022/04/19 02:48:34;;;;;;;8.05;3.30;;;;;;;3.49;76.38;99068.84;4992097;28;20079;-52
2022/04/19 02:51:00;;;;;;;11.02;3.35;;;;;;;3.42;76.49;99062.69;4997559;28;20038;-51
2022/04/19 02:53:26;;;;;;;5.47;3.28;;;;;;;3.36;77.81;99068.81;4991738;28;20022;-51
2022/04/19 02:55:51;;;;;;;13.18;4.43;;;;;;;3.22;78.97;99060.84;4989951;28;20045;-51
2022/04/19 02:58:17;;;;;;;4.47;3.20;;;;;;;3.57;77.08;99060.72;4988780;28;20035;-50
2022/04/19 03:00:43;;;;;;;8.40;4.05;;;;;;;3.43;76.64;99053.75;4989495;28;20046;-50
2022/04/19 03:03:12;;;;;;;8.73;4.30;;;;;;;3.07;78.80;99054.88;4997260;28;20026;-52
2022/04/19 03:05:40;;;;;;;10.32;5.20;;;;;;;3.28;82.41;99055.75;4989689;28;20121;-51
2022/04/19 03:08:05;;;;;;;9.00;5.20;;;;;;;3.06;80.31;99047.94;4995522;28;20469;-50
2022/04/19 03:10:31;;;;;;;12.65;5.70;;;;;;;2.88;80.59;99051.13;4994394;28;20042;-52
2022/04/19 03:12:56;;;;;;;9.57;5.57;;;;;;;2.77;80.39;99043.72;4988807;28;20025;-52
2022/04/19 03:15:22;;;;;;;9.70;4.82;;;;;;;2.76;82.44;99042.91;4992323;28;20403;-50
2022/04/19 03:17:48;;;;;;;7.40;3.95;;;;;;;2.87;80.49;99038.91;4972777;28;20034;-52
2022/04/19 03:20:13;;;;;;;6.93;3.50;;;;;;;3.06;82.13;99042.63;4994569;28;20034;-51
2022/04/19 03:28:09;;;;;;;6.47;3.88;;;;;;;2.92;79.98;99040.94;4988660;28;20068;-49
2022/04/19 03:30:35;;;;;;;12.05;5.32;;;;;;;2.80;79.69;99049.47;4997579;28;20467;-50
2022/04/19 03:33:00;;;;;;;7.75;4.00;;;;;;;2.81;82.10;99044.97;4990028;28;20035;-49
2022/04/19 03:35:26;;;;;;;6.75;3.88;;;;;;;2.67;80.64;99048.56;4995021;28;20042;-50
2022/04/19 03:37:51;;;;;;;11.68;4.82;;;;;;;2.53;81.41;99052.97;5002230;28;20030;-51
2022/04/19 03:40:17;;;;;;;12.15;5.60;;;;;;;2.49;81.57;99052.53;4988794;28;20523;-49
2022/04/19 03:42:42;;;;;;;9.68;5.30;;;;;;;2.46;81.46;99052.13;4995301;28;20038;-49
2022/04/19 03:45:09;;;;;;;10.35;4.47;;;;;;;2.62;83.15;99051.81;4994018;28;20049;-49
2022/04/19 03:47:35;;;;;;;6.60;3.67;;;;;;;2.76;81.48;99058.78;4993653;28;20028;-49
2022/04/19 03:50:00;;;;;;;5.57;2.72;;;;;;;2.96;80.14;99056.25;4996963;28;20057;-50
2022/04/19 03:52:26;;;;;;;5.18;3.03;;;;;;;2.86;78.21;99053.16;4994491;28;20049;-49
2022/04/19 03:54:52;;;;;;;7.43;3.35;;;;;;;2.66;79.04;99055.69;4989479;28;20030;-49
2022/04/19 03:57:18;;;;;;;8.63;3.65;;;;;;;2.73;79.20;99053.09;4987419;28;20053;-50
2022/04/19 03:59:43;;;;;;;4.85;3.10;;;;;;;2.88;77.78;99050.31;4991958;28;20091;-50
2022/04/19 04:02:09;;;;;;;8.93;4.03;;;;;;;2.50;79.38;99048.91;4996100;28;20483;-49
2022/04/19 04:04:36;;;;;;;8.63;4.60;;;;;;;2.46;80.45;99046.81;4992132;28;20531;-52
2022/04/19 04:07:05;;;;;;;6.55;4.43;;;;;;;2.26;80.67;99052.78;4995721;28;20444;-53
2022/04/19 04:09:35;;;;;;;7.30;3.30;;;;;;;2.34;83.90;99050.00;4992935;28;20034;-52
2022/04/19 04:12:04;;;;;;;7.53;3.87;;;;;;;2.46;83.74;99049.47;4987740;28;20039;-52
2022/04/19 04:14:30;;;;;;;7.75;4.35;;;;;;;2.35;81.01;99048.19;4986106;28;20673;-49
2022/04/19 04:16:55;;;;;;;5.82;3.30;;;;;;;2.39;81.26;99046.78;4988142;28;20508;-51
2022/04/19 04:19:21;;;;;;;6.32;3.10;;;;;;;2.50;82.50;99048.09;4992375;28;20507;-54
2022/04/19 04:21:46;;;;;;;8.43;3.33;;;;;;;2.53;80.40;99047.69;4991111;28;20045;-52
2022/04/19 04:24:12;;;;;;;6.07;3.35;;;;;;;2.49;80.55;99043.78;4991607;28;20042;-52
2022/04/19 04:26:37;;;;;;;6.28;3.40;;;;;;;2.61;80.37;99050.16;4986891;28;20041;-52
2022/04/19 04:29:03;;;;;;;5.72;3.30;;;;;;;2.84;79.40;99054.34;4992728;28;20033;-51
2022/04/19 04:31:28;;;;;;;6.78;4.03;;;;;;;2.48;79.55;99058.03;4987276;28;20129;-49
2022/04/19 04:33:54;;;;;;;7.68;4.68;;;;;;;2.34;80.54;99057.94;4995688;28;20027;-51
2022/04/19 04:36:19;;;;;;;9.45;5.25;;;;;;;2.29;80.41;99064.81;4993393;28;20053;-52
2022/04/19 04:38:45;;;;;;;8.13;4.85;;;;;;;2.04;80.72;99059.94;4987493;28;20074;-49
2022/04/19 04:41:11;;;;;;;13.75;4.28;;;;;;;2.27;81.03;99062.38;4986870;28;20053;-52
2022/04/19 04:43:38;;;;;;;7.30;4.20;;;;;;;2.21;80.27;99060.50;4992793;28;20026;-51
2022/04/19 04:51:31;;;;;;;8.40;4.68;;;;;;;4.39;77.16;99077.25;4989978;28;20542;-49
2022/04/19 04:53:57;;;;;;;8.93;4.90;;;;;;;5.74;67.96;99081.88;4991888;28;20038;-53
2022/04/19 04:56:23;;;;;;;6.63;4.43;;;;;;;6.23;65.29;99083.78;4988255;28;20046;-51
2022/04/19 04:58:49;;;;;;;7.07;4.05;;;;;;;5.00;68.51;99075.31;4990220;28;20061;-50
2022/04/19 05:01:14;;;;;;;8.40;4.22;;;;;;;5.49;67.86;99079.16;4991820;28;20475;-53
2022/04/19 05:03:40;;;;;;;7.68;4.05;;;;;;;4.48;70.69;99078.69;4985070;28;20110;-53
2022/04/19 05:06:05;;;;;;;7.45;4.07;;;;;;;5.97;66.82;99081.34;4993227;28;20061;-51
2022/04/19 05:08:31;;;;;;;6.60;3.60;;;;;;;6.91;62.15;99082.13;4986879;28;20509;-51
2022/04/19 05:10:56;;;;;;;6.70;4.30;;;;;;;7.13;61.23;99080.63;4997176;28;20391;-53
2022/04/19 05:13:21;;;;;;;7.25;3.75;;;;;;;7.47;60.09;99074.88;4989115;28;20457;-50
2022/04/19 05:15:47;;;;;;;7.50;4.13;;;;;;;7.79;59.30;99078.13;4988709;28;20524;-50
2022/04/19 05:18:14;;;;;;;6.63;3.90;;;;;;;8.83;56.26;99078.47;4988013;28;20046;-51
2022/04/19 05:20:40;;;;;;;7.88;4.28;;;;;;;10.98;50.35;99073.31;4988034;28;20037;-53
2022/04/19 05:23:06;;;;;;;10.43;3.97;;;;;;;10.64;50.25;99080.66;4986676;28;20092;-49
2022/04/19 05:25:31;;;;;;;7.82;4.38;;;;;;;11.27;50.11;99075.84;4993205;28;20382;-51
2022/04/19 05:27:58;;;;;;;12.80;3.88;;;;;;;12.13;46.78;99069.72;4993392;28;20440;-51
2022/04/19 05:30:23;;;;;;;6.95;4.15;;;;;;;13.44;44.09;99070.75;4997598;28;20126;-50
2022/04/19 05:32:49;;;;;;;7.38;3.45;;;;;;;12.65;45.15;99072.50;4992751;28;20049;-52
2022/04/19 05:35:14;;;;;;;6.63;3.58;;;;;;;12.60;44.82;99077.06;4996387;28;20062;-53
2022/04/19 05:37:40;;;;;;;5.18;3.38;;;;;;;12.38;44.91;99077.16;4987761;28;20033;-50
2022/04/19 05:40:06;;;;;;;6.93;3.63;;;;;;;13.20;43.80;99083.00;4981337;28;20030;-51
2022/04/19 05:42:32;;;;;;;4.95;3.53;;;;;;;14.26;41.70;99073.56;4987929;28;20072;-53
2022/04/19 05:44:57;;;;;;;4.88;3.35;;;;;;;14.42;41.36;99075.16;4993108;28;20026;-53
2022/04/19 05:47:23;;;;;;;8.18;3.60;;;;;;;13.89;42.26;99074.63;4990724;28;20058;-52
2022/04/19 05:49:48;;;;;;;8.98;3.45;;;;;;;14.11;41.86;99070.88;4986581;28;20034;-53
2022/04/19 05:52:14;;;;;;;17.38;3.67;;;;;;;15.25;40.26;99073.06;4987137;28;20064;-54
2022/04/19 05:54:39;;;;;;;6.75;3.97;;;;;;;15.03;39.44;99078.84;4990341;28;20033;-52
2022/04/19 05:57:05;;;;;;;9.18;4.10;;;;;;;14.60;40.14;99089.19;4986795;28;20062;-51
2022/04/19 05:59:30;;;;;;;12.73;4.57;;;;;;;15.08;39.91;99082.31;4995110;28;20037;-50
2022/04/19 06:04:52;;;;;;;8.40;4.18;;;;;;;15.69;38.73;99089.34;4995022;28;20123;-49
2022/04/19 06:07:20;;;;;;;15.52;4.40;;;;;;;14.38;40.92;99087.56;4985988;28;20271;-49
2022/04/19 06:09:46;;;;;;;10.85;4.55;;;;;;;15.03;40.31;99081.53;4987724;28;20489;-52
2022/04/19 06:12:11;;;;;;;11.25;5.28;;;;;;;15.34;39.35;99086.81;4986904;28;20038;-52
2022/04/19 06:14:37;;;;;;;15.00;5.05;;;;;;;15.16;40.66;99080.16;4984820;28;20047;-51
2022/04/19 06:17:03;;;;;;;11.90;5.25;;;;;;;16.26;38.11;99083.56;4999515;28;20042;-51
2022/04/19 06:19:28;;;;;;;10.93;3.88;;;;;;;13.89;42.28;99085.38;4986331;28;20026;-52
2022/04/19 06:21:55;;;;;;;12.18;5.53;;;;;;;14.53;41.16;99088.66;4990196;28;20034;-50
2022/04/19 06:24:20;;;;;;;12.35;4.32;;;;;;;15.27;40.26;99082.50;4996302;28;20125;-49
2022/04/19 06:26:46;;;;;;;8.80;4.28;;;;;;;15.87;38.16;99077.06;4991951;28;20469;-52
2022/04/19 06:29:11;;;;;;;9.82;4.53;;;;;;;15.60;38.71;99082.91;4996692;28;20022;-52
2022/04/19 06:31:36;;;;;;;12.75;4.25;;;;;;;16.68;38.19;99087.50;4993342;28;20034;-49
2022/04/19 06:34:02;;;;;;;8.38;3.60;;;;;;;15.76;39.32;99085.53;4990439;28;20030;-50
2022/04/19 06:36:27;;;;;;;6.43;3.67;;;;;;;16.49;37.85;99085.50;4995005;28;20046;-52
2022/04/19 06:38:53;;;;;;;9.02;3.72;;;;;;;17.21;37.11;99090.19;4994758;28;20046;-51
2022/04/19 06:41:19;;;;;;;9.73;3.97;;;;;;;16.59;38.15;99085.41;4989998;28;20050;-52
2022/04/19 06:43:45;;;;;;;14.43;3.80;;;;;;;17.03;37.32;99084.44;4991416;28;20031;-53
2022/04/19 06:46:12;;;;;;;10.70;4.00;;;;;;;17.59;36.81;99087.53;4992659;28;20034;-52
2022/04/19 06:48:38;;;;;;;8.60;4.57;;;;;;;17.26;37.27;99090.13;5002904;28;20029;-52
2022/04/19 06:51:04;;;;;;;11.82;4.50;;;;;;;17.39;37.80;99091.31;4990701;28;20042;-52
2022/04/19 06:53:30;;;;;;;10.02;4.57;;;;;;;16.90;37.63;99090.56;4999474;28;20150;-52
2022/04/19 06:55:58;;;;;;;12.20;4.53;;;;;;;17.65;36.98;99095.31;4996171;28;20042;-52
2022/04/19 06:58:24;;;;;;;14.23;4.30;;;;;;;17.51;37.08;99090.91;5003416;28;20391;-50
2022/04/19 07:00:50;;;;;;;10.23;4.13;;;;;;;17.54;36.03;99093.81;4989338;28;20273;-53
2022/04/19 07:03:16;;;;;;;12.80;4.70;;;;;;;17.07;36.72;99091.97;4986706;28;20042;-51
2022/04/19 07:05:41;;;;;;;9.98;4.38;;;;;;;17.57;36.19;99097.84;4993186;28;20045;-50
2022/04/19 07:08:07;;;;;;;9.88;4.05;;;;;;;18.64;35.02;99101.66;4990138;28;20034;-51
2022/04/19 07:10:33;;;;;;;9.93;4.07;;;;;;;17.97;35.77;99095.69;4991364;28;20046;-52
2022/04/19 07:12:59;;;;;;;10.38;4.20;;;;;;;18.10;36.24;99089.53;4994396;28;20066;-51
2022/04/19 07:15:25;;;;;;;13.98;4.53;;;;;;;18.06;35.84;99088.50;4988609;28;20048;-49
2022/04/19 07:17:51;;;;;;;11.95;4.57;;;;;;;18.48;35.75;99084.03;4987648;28;20053;-51
2022/04/19 07:28:28;;;;;;;33.47;5.75;;;;;;;18.04;37.39;99093.44;4999327;28;20045;-53
2022/04/19 07:30:53;;;;;;;29.98;5.90;;;;;;;18.09;37.41;99093.34;4994222;28;20054;-50
2022/04/19 07:33:19;;;;;;;44.40;5.93;;;;;;;18.49;37.90;99089.16;4993296;28;20034;-52
2022/04/19 07:35:44;;;;;;;50.92;6.32;;;;;;;17.13;39.36;99091.66;4992080;28;20045;-53
2022/04/19 07:38:10;;;;;;;59.35;6.63;;;;;;;17.89;38.14;99100.69;4998331;28;20405;-53
2022/04/19 07:40:36;;;;;;;53.20;6.40;;;;;;;18.23;36.94;99096.91;5001681;28;20038;-53
2022/04/19 07:43:02;;;;;;;35.45;7.07;;;;;;;17.47;38.33;99098.78;4996107;28;20567;-50
2022/04/19 07:45:31;;;;;;;67.18;7.20;;;;;;;17.37;38.44;99091.63;4990780;28;20120;-53
2022/04/19 07:47:56;;;;;;;47.90;6.28;;;;;;;17.71;38.64;99092.53;4993309;28;20394;-52
2022/04/19 07:50:22;;;;;;;41.90;6.18;;;;;;;18.27;38.18;99095.25;4990084;28;20417;-51
2022/04/19 07:52:47;;;;;;;36.63;5.95;;;;;;;18.07;38.14;99093.66;4989070;28;20045;-51
2022/04/19 07:55:13;;;;;;;37.33;6.18;;;;;;;17.04;39.19;99091.47;4994810;28;20094;-54
2022/04/19 07:57:38;;;;;;;38.50;5.60;;;;;;;18.28;37.20;99088.69;4987199;28;20030;-51
2022/04/19 08:00:04;;;;;;;43.35;6.30;;;;;;;17.73;37.19;99093.84;4992509;28;20037;-52
2022/04/19 08:02:30;;;;;;;61.80;6.43;;;;;;;17.53;37.91;99088.72;5003796;28;20021;-51
2022/04/19 08:04:56;;;;;;;41.17;6.32;;;;;;;18.22;37.58;99087.19;4991997;28;20026;-52
2022/04/19 08:07:21;;;;;;;51.33;8.23;;;;;;;18.07;37.85;99087.41;4997272;28;20034;-51
2022/04/19 08:09:47;;;;;;;54.55;7.60;;;;;;;18.93;36.61;99087.03;4989472;28;20445;-54
2022/04/19 08:12:12;;;;;;;60.58;7.43;;;;;;;16.35;41.17;99092.69;4992199;28;20149;-54
2022/04/19 08:14:41;;;;;;;65.82;7.30;;;;;;;16.48;41.19;99089.31;4985610;28;20033;-51
2022/04/19 08:17:07;;;;;;;88.78;10.20;;;;;;;16.39;41.92;99089.09;4987289;28;20042;-53
2022/04/19 08:19:32;;;;;;;53.03;6.75;;;;;;;17.24;40.36;99084.19;4977219;28;20030;-53
2022/04/19 08:21:58;;;;;;;51.47;6.82;;;;;;;16.46;41.41;99079.88;4989233;28;20050;-53
2022/04/19 08:24:23;;;;;;;44.42;6.78;;;;;;;15.74;43.31;99075.81;4988754;28;20030;-54
2022/04/19 08:26:48;;;;;;;42.05;6.45;;;;;;;17.33;40.20;99078.97;4988451;28;20043;-53
2022/04/19 08:29:14;;;;;;;50.70;7.68;;;;;;;18.12;39.28;99084.59;4991797;28;20038;-52
2022/04/19 08:31:39;;;;;;;45.60;6.90;;;;;;;16.91;41.08;99069.69;4988799;28;20034;-52
2022/04/19 08:34:05;;;;;;;58.33;7.30;;;;;;;17.98;40.00;99076.44;4991970;28;20021;-52
2022/04/19 08:36:30;;;;;;;43.00;6.40;;;;;;;18.30;38.59;99072.94;4986823;28;20038;-52
2022/04/19 08:38:56;;;;;;;50.10;6.65;;;;;;;17.64;40.24;99071.22;4993346;28;20076;-52
2022/04/19 08:41:21;;;;;;;35.88;5.57;;;;;;;18.68;39.08;99070.09;4993811;28;20042;-53
2022/04/19 08:43:47;;;;;;;36.47;5.97;;;;;;;18.79;38.04;99070.72;4994552;28;20392;-53
2022/04/19 08:46:13;;;;;;;45.13;5.93;;;;;;;18.40;39.11;99066.53;4993686;28;20049;-51
2022/04/19 08:48:40;;;;;;;24.00;5.45;;;;;;;19.46;37.74;99067.47;4989679;28;20030;-50
2022/04/19 08:51:05;;;;;;;12.35;5.03;;;;;;;18.70;36.48;99076.03;4987129;28;20042;-52
2022/04/19 08:59:04;;;;;;;28.00;5.93;;;;;;;17.03;38.92;99065.50;4995568;28;20057;-52
2022/04/19 09:01:29;;;;;;;24.38;5.40;;;;;;;18.97;36.50;99066.34;4994360;28;20049;-51
2022/04/19 09:03:55;;;;;;;22.27;5.97;;;;;;;18.80;36.91;99068.84;4991524;28;20408;-49
2022/04/19 09:06:21;;;;;;;12.65;4.75;;;;;;;17.67;37.07;99070.63;4980142;28;20054;-50
2022/04/19 09:09:11;;;;;;;9.10;4.78;;;;;;;16.66;38.75;99054.50;4994829;28;20037;-52
2022/04/19 09:11:37;;;;;;;10.20;5.10;;;;;;;16.65;38.71;99059.13;4988371;28;20121;-52
2022/04/19 09:14:06;;;;;;;13.25;5.40;;;;;;;17.08;39.46;99053.00;4992593;28;20031;-58
2022/04/19 09:16:32;;;;;;;19.02;5.43;;;;;;;18.12;37.25;99054.78;4992990;28;20088;-50
2022/04/19 09:18:57;;;;;;;12.15;5.00;;;;;;;17.35;36.75;99050.47;4985464;28;20034;-52
2022/04/19 09:21:37;;;;;;;10.27;5.03;;;;;;;16.72;38.65;99046.03;4993853;28;20583;-51
2022/04/19 09:24:15;;;;;;;;;;;;;;;17.17;36.69;99051.25;4993032;28;20034;-52
2022/04/19 09:26:42;;;;;;;8.52;4.55;;;;;;;18.90;34.24;99041.50;4987883;28;19957;-52
2022/04/19 09:29:18;;;;;;;8.55;5.15;;;;;;;19.45;34.13;99038.72;4993274;28;20401;-53
2022/04/19 09:31:45;;;;;;;8.65;5.00;;;;;;;18.11;34.09;99042.31;4992757;28;20184;-51
2022/04/19 09:34:11;;;;;;;10.07;5.28;;;;;;;17.76;34.42;99046.38;4998646;28;20118;-50
2022/04/19 09:36:37;;;;;;;12.35;5.93;;;;;;;18.95;33.65;99046.81;4991951;28;20455;-53
2022/04/19 09:39:22;;;;;;;8.40;5.10;;;;;;;18.99;33.26;99050.53;4977847;28;20069;-53
2022/04/19 09:41:48;;;;;;;9.13;5.13;;;;;;;19.15;32.60;99049.13;4993019;28;20044;-51
2022/04/19 09:44:13;;;;;;;14.10;5.35;;;;;;;18.61;33.78;99034.41;4970576;28;20038;-51
2022/04/19 09:46:39;;;;;;;12.32;4.60;;;;;;;17.25;35.11;99027.03;4991163;28;20044;-52
2022/04/19 09:49:05;;;;;;;7.43;5.18;;;;;;;17.17;34.26;99038.53;4996391;28;20034;-54
2022/04/19 09:51:31;;;;;;;9.77;4.18;;;;;;;18.27;34.21;99027.41;4991113;28;20111;-52
2022/04/19 09:53:57;;;;;;;15.75;5.22;;;;;;;19.30;32.24;99028.97;4995299;28;20052;-56
2022/04/19 09:56:23;;;;;;;18.20;5.15;;;;;;;19.49;31.70;99019.88;4976541;28;20097;-53
2022/04/19 09:58:49;;;;;;;15.13;5.13;;;;;;;21.22;29.68;99028.22;4980757;28;20026;-53
2022/04/19 10:09:25;;;;;;;12.18;5.18;;;;;;;19.18;31.69;99009.66;4995502;28;20041;-53
2022/04/19 10:11:54;;;;;;;9.82;4.43;;;;;;;20.57;30.38;99012.66;4985763;28;20038;-52
2022/04/19 10:14:19;;;;;;;6.82;4.18;;;;;;;19.03;30.77;99008.09;4988739;28;20061;-51
2022/04/19 10:16:44;;;;;;;9.10;5.05;;;;;;;18.71;31.89;99017.13;4977031;28;20054;-52
2022/04/19 10:19:10;;;;;;;8.50;4.60;;;;;;;18.51;33.05;99012.88;4994458;28;20390;-53
2022/04/19 10:21:35;;;;;;;15.40;4.55;;;;;;;18.29;33.12;99022.47;4990173;28;20058;-52
2022/04/19 10:24:15;;;;;;;10.32;4.40;;;;;;;17.98;33.65;99016.78;4980653;28;20803;-52
2022/04/19 10:26:47;;;;;;;10.25;4.68;;;;;;;18.08;33.04;99016.59;4995830;28;20035;-54
2022/04/19 10:29:17;;;;;;;8.82;4.80;;;;;;;17.08;33.19;99015.91;4991839;28;20559;-55
2022/04/19 10:31:58;;;;;;;7.93;4.50;;;;;;;17.73;33.57;99004.41;4993730;28;20081;-52
2022/04/19 10:34:29;;;;;;;11.15;5.22;;;;;;;17.79;33.08;99011.34;4992704;28;20048;-52
2022/04/19 10:36:57;;;;;;;10.10;4.72;;;;;;;18.05;31.90;99011.00;4994407;28;20065;-53
2022/04/19 10:39:32;;;;;;;12.35;4.70;;;;;;;18.17;32.38;98996.94;4991300;28;20037;-52
2022/04/19 10:42:02;;;;;;;8.82;4.85;;;;;;;19.17;30.27;99003.44;4993322;28;20070;-53
2022/04/19 10:44:41;;;;;;;7.60;4.80;;;;;;;17.94;32.22;99004.91;4993395;28;20042;-53
2022/04/19 10:47:13;;;;;;;8.95;5.05;;;;;;;18.52;31.93;98998.19;5000987;28;20042;-52
2022/04/19 10:50:07;;;;;;;8.48;4.65;;;;;;;18.20;33.05;99002.59;5003216;28;20022;-53
2022/04/19 10:52:39;;;;;;;10.73;5.00;;;;;;;18.59;31.10;98995.88;4993585;28;20141;-51
2022/04/19 10:55:04;;;;;;;11.35;5.30;;;;;;;18.11;31.37;98993.50;5001376;28;20052;-53
2022/04/19 11:00:54;;;;;;;11.40;5.28;;;;;;;18.14;31.64;98995.63;4989409;28;20048;-51
2022/04/19 11:03:26;;;;;;;9.93;5.22;;;;;;;18.44;30.35;98988.03;4997290;28;20468;-52
2022/04/19 11:05:58;;;;;;;10.02;5.05;;;;;;;19.02;31.40;98984.75;4994997;28;20042;-52
2022/04/19 11:08:26;;;;;;;12.88;6.00;;;;;;;18.01;31.15;98982.84;4986041;28;20034;-53
2022/04/19 11:10:52;;;;;;;8.93;5.20;;;;;;;18.14;30.17;98986.69;4995076;28;20046;-53
2022/04/19 11:13:21;;;;;;;9.90;5.20;;;;;;;17.66;31.35;98990.44;4996739;28;20041;-53
2022/04/19 11:15:59;;;;;;;9.25;4.85;;;;;;;18.25;30.01;98975.38;4989113;28;20054;-50
2022/04/19 11:18:26;;;;;;;10.35;5.15;;;;;;;18.31;30.42;98974.16;4990644;28;20862;-53
2022/04/19 11:20:52;;;;;;;10.43;5.32;;;;;;;18.49;30.03;98982.50;4993625;28;20460;-52
2022/04/19 11:23:18;;;;;;;12.57;5.72;;;;;;;18.28;31.62;98976.69;4994107;28;20170;-53
2022/04/19 11:25:45;;;;;;;12.60;5.78;;;;;;;17.30;32.18;98980.13;4995525;28;20042;-52
2022/04/19 11:28:11;;;;;;;12.30;5.80;;;;;;;17.03;32.09;98981.56;4984310;28;20057;-51
2022/04/19 11:30:37;;;;;;;10.82;5.00;;;;;;;17.23;32.66;98969.66;4998104;28;20081;-50
2022/04/19 11:33:04;;;;;;;10.60;5.18;;;;;;;18.46;31.17;98964.13;4985677;28;20060;-50
2022/04/19 11:35:32;;;;;;;10.73;5.40;;;;;;;19.05;30.25;98956.97;4995950;28;20489;-53
2022/04/19 11:38:02;;;;;;;9.05;5.25;;;;;;;18.40;29.50;98955.28;4994483;28;20061;-51
2022/04/19 11:48:45;;;;;;;11.70;4.63;;;;;;;18.04;31.66;98955.13;4988375;28;20036;-52
2022/04/19 11:51:12;;;;;;;9.38;5.10;;;;;;;17.55;32.17;98945.63;4992247;28;20413;-52
2022/04/19 11:53:37;;;;;;;11.98;5.65;;;;;;;17.48;32.97;98950.63;5000104;28;20041;-50
2022/04/19 11:56:03;;;;;;;9.88;5.72;;;;;;;17.13;32.64;98958.16;4993450;28;20046;-52
2022/04/19 11:58:29;;;;;;;9.48;5.57;;;;;;;17.80;31.58;98950.66;4995024;28;20041;-53
2022/04/19 12:01:05;;;;;;;9.00;5.15;;;;;;;19.01;30.14;98947.03;4992557;28;20046;-53
2022/04/19 12:03:36;;;;;;;8.88;5.13;;;;;;;18.61;30.52;98942.13;4989202;28;20053;-52
2022/04/19 12:06:12;;;;;;;10.07;4.97;;;;;;;18.41;29.95;98940.59;4988380;28;20145;-51
2022/04/19 12:08:41;;;;;;;8.20;3.92;;;;;;;17.94;29.64;98945.25;4995245;28;20030;-53
2022/04/19 12:11:12;;;;;;;8.60;4.43;;;;;;;18.12;29.92;98935.44;4992449;28;20356;-51
2022/04/19 12:13:38;;;;;;;7.05;4.32;;;;;;;17.65;31.15;98940.84;4991933;28;20030;-53
2022/04/19 12:16:07;;;;;;;8.00;4.32;;;;;;;17.86;31.51;98933.19;4993302;28;20058;-50
2022/04/19 12:18:33;;;;;;;11.15;4.50;;;;;;;19.49;29.43;98933.69;4993852;28;20038;-53